Time;durP1;ratioP1;P1;durP2;ratioP2;P2;SDS_P1;SDS_P2;PMS_P1;PMS_P2;Temp;Humidity;BMP_temperature;BMP_pressure;BME280_temperature;BME280_humidity;BME280_pressure;Samples;Min_cycle;Max_cycle;Signal;HPM_P1;HPM_P2
2022/06/23 00:01:04;;;;;;;8.25;3.90;;;;;;;;;;5019225;28;20108;-76
2022/06/23 00:03:31;;;;;;;;;;;;;;;;;;5027128;28;20113;-76
2022/06/23 00:06:00;;;;;;;5.70;3.80;;;;;;;;;;5024503;28;19920;-73
2022/06/23 00:08:25;;;;;;;9.00;4.05;;;;;;;;;;5022355;28;20522;-73
2022/06/23 00:10:57;;;;;;;8.43;3.92;;;;;;;;;;5023618;28;20024;-76
2022/06/23 00:13:37;;;;;;;7.43;4.13;;;;;;;;;;5023540;28;21550;-75
2022/06/23 00:16:04;;;;;;;7.18;4.20;;;;;;;;;;5021151;28;20433;-75
2022/06/23 00:18:35;;;;;;;9.52;4.05;;;;;;;;;;5019608;28;20112;-75
2022/06/23 00:21:03;;;;;;;6.97;3.90;;;;;;;;;;5025049;28;20033;-75
2022/06/23 00:23:35;;;;;;;8.43;4.00;;;;;;;;;;5019749;28;20528;-74
2022/06/23 00:26:11;;;;;;;6.65;4.10;;;;;;;;;;5023810;28;20025;-75
2022/06/23 00:28:47;;;;;;;8.60;4.30;;;;;;;;;;5023300;28;20029;-76
2022/06/23 00:31:40;;;;;;;7.88;4.00;;;;;;;;;;5024341;28;20037;-75
2022/06/23 00:34:13;;;;;;;8.17;4.40;;;;;;;;;;5022084;28;20025;-75
2022/06/23 00:36:52;;;;;;;12.35;4.65;;;;;;;;;;5019723;28;20405;-77
2022/06/23 00:39:47;;;;;;;9.52;4.70;;;;;;;;;;5020889;28;21218;-76
2022/06/23 00:42:32;;;;;;;9.10;4.55;;;;;;;;;;5023773;28;20049;-76
2022/06/23 00:45:05;;;;;;;7.65;4.45;;;;;;;;;;5022445;28;20029;-76
2022/06/23 00:47:57;;;;;;;6.55;4.53;;;;;;;;;;5022874;28;20441;-76
2022/06/23 00:50:35;;;;;;;10.18;4.75;;;;;;;;;;5025176;28;20021;-77
2022/06/23 00:53:12;;;;;;;7.53;4.50;;;;;;;;;;5023850;28;20079;-76
2022/06/23 00:56:01;;;;;;;9.30;4.32;;;;;;;;;;5027369;28;20034;-76
2022/06/23 00:58:26;;;;;;;7.78;4.13;;;;;;;;;;5027847;28;20052;-77
2022/06/23 01:00:55;;;;;;;6.47;4.20;;;;;;;;;;5022108;28;20037;-76
2022/06/23 01:03:27;;;;;;;8.18;4.43;;;;;;;;;;5024700;28;20025;-74
2022/06/23 01:06:10;;;;;;;8.82;4.72;;;;;;;;;;5026427;28;20098;-76
2022/06/23 01:08:42;;;;;;;;;;;;;;;;;;5021458;28;20025;-73
2022/06/23 01:11:21;;;;;;;6.05;4.03;;;;;;;;;;5018757;28;19976;-77
2022/06/23 01:14:06;;;;;;;7.10;4.55;;;;;;;;;;5018977;28;20473;-76
2022/06/23 01:16:55;;;;;;;7.43;4.40;;;;;;;;;;5019430;28;20033;-77
2022/06/23 01:19:56;;;;;;;8.15;4.57;;;;;;;;;;5016964;28;20033;-77
2022/06/23 01:22:49;;;;;;;7.68;4.72;;;;;;;;;;5024949;28;20034;-76
2022/06/23 01:25:42;;;;;;;7.30;4.38;;;;;;;;;;5021358;28;20029;-76
2022/06/23 01:28:15;;;;;;;8.50;4.55;;;;;;;;;;5017406;28;20490;-77
2022/06/23 01:31:05;;;;;;;10.80;4.82;;;;;;;;;;5022686;28;20029;-74
2022/06/23 01:33:33;;;;;;;8.30;4.80;;;;;;;;;;5022900;28;21630;-76
2022/06/23 01:36:05;;;;;;;8.38;4.50;;;;;;;;;;5016092;28;20501;-77
2022/06/23 01:39:15;;;;;;;8.80;4.70;;;;;;;;;;5021071;28;20077;-77
2022/06/23 01:41:56;;;;;;;7.03;4.43;;;;;;;;;;5025379;28;20521;-76
2022/06/23 01:44:36;;;;;;;7.38;4.30;;;;;;;;;;5022756;28;20025;-77
2022/06/23 01:47:21;;;;;;;7.95;4.20;;;;;;;;;;5027417;28;20111;-77
2022/06/23 01:49:50;;;;;;;9.00;4.47;;;;;;;;;;5027078;28;20493;-75
2022/06/23 01:52:20;;;;;;;8.80;4.60;;;;;;;;;;5022768;28;20159;-76
2022/06/23 01:55:01;;;;;;;7.07;4.68;;;;;;;;;;5025176;28;20105;-77
2022/06/23 01:57:44;;;;;;;7.38;4.32;;;;;;;;;;5029097;28;20477;-77
2022/06/23 02:00:09;;;;;;;;;;;;;;;;;;5027994;28;20083;-77
2022/06/23 02:02:49;;;;;;;6.65;4.10;;;;;;;;;;5022443;28;19920;-77
2022/06/23 02:05:28;;;;;;;8.15;4.28;;;;;;;;;;5026135;28;20028;-74
2022/06/23 02:08:12;;;;;;;6.93;4.20;;;;;;;;;;5020892;28;20026;-76
2022/06/23 02:10:47;;;;;;;7.45;4.68;;;;;;;;;;5021249;28;20037;-74
2022/06/23 02:13:29;;;;;;;8.23;4.60;;;;;;;;;;5022617;28;20029;-76
2022/06/23 02:16:05;;;;;;;8.55;4.55;;;;;;;;;;5020886;28;20390;-74
2022/06/23 02:18:44;;;;;;;8.35;4.32;;;;;;;;;;5019215;28;20048;-76
2022/06/23 02:21:26;;;;;;;6.75;4.05;;;;;;;;;;5028087;28;20029;-77
2022/06/23 02:24:15;;;;;;;6.78;4.60;;;;;;;;;;5025700;28;20056;-76
2022/06/23 02:27:25;;;;;;;6.97;4.63;;;;;;;;;;5021072;28;20022;-76
2022/06/23 02:30:09;;;;;;;7.32;4.65;;;;;;;;;;5019367;28;20385;-76
2022/06/23 02:32:53;;;;;;;7.53;4.63;;;;;;;;;;5024450;28;20029;-78
2022/06/23 02:35:30;;;;;;;6.35;4.50;;;;;;;;;;5024938;28;20409;-77
2022/06/23 02:38:26;;;;;;;7.65;4.45;;;;;;;;;;5023211;28;20033;-77
2022/06/23 02:40:56;;;;;;;8.90;4.68;;;;;;;;;;5008345;28;20045;-77
2022/06/23 02:43:33;;;;;;;7.10;4.68;;;;;;;;;;5028371;28;20105;-76
2022/06/23 02:46:17;;;;;;;8.85;5.25;;;;;;;;;;5026549;28;20026;-73
2022/06/23 02:49:03;;;;;;;6.68;4.65;;;;;;;;;;5028077;28;20116;-76
2022/06/23 02:51:39;;;;;;;10.27;5.15;;;;;;;;;;5029359;28;20036;-76
2022/06/23 02:54:26;;;;;;;6.22;4.72;;;;;;;;;;5027635;28;20021;-77
2022/06/23 02:57:13;;;;;;;10.50;5.10;;;;;;;;;;5027502;28;20083;-77
2022/06/23 03:00:01;;;;;;;9.05;5.68;;;;;;;;;;5019855;28;20041;-76
2022/06/23 03:02:33;;;;;;;7.55;4.97;;;;;;;;;;5027754;28;20552;-77
2022/06/23 03:05:14;;;;;;;7.80;4.80;;;;;;;;;;5028407;28;20028;-76
2022/06/23 03:08:01;;;;;;;7.65;5.30;;;;;;;;;;5023618;28;20355;-77
2022/06/23 03:10:26;;;;;;;9.20;5.03;;;;;;;;;;5024357;28;20494;-73
2022/06/23 03:12:59;;;;;;;7.38;4.75;;;;;;;;;;5030356;28;20040;-77
2022/06/23 03:15:33;;;;;;;8.52;5.55;;;;;;;;;;5027395;28;20663;-76
2022/06/23 03:17:58;;;;;;;7.05;4.63;;;;;;;;;;5025827;28;20029;-77
2022/06/23 03:20:47;;;;;;;10.00;5.38;;;;;;;;;;5022836;28;20037;-77
2022/06/23 03:23:34;;;;;;;7.43;5.50;;;;;;;;;;5042265;28;20131;-77
2022/06/23 03:26:29;;;;;;;7.30;4.85;;;;;;;;;;5024819;28;20025;-76
2022/06/23 03:29:05;;;;;;;7.15;5.35;;;;;;;;;;5021974;28;20049;-75
2022/06/23 03:31:47;;;;;;;7.95;4.82;;;;;;;;;;5026168;28;20116;-76
2022/06/23 03:34:23;;;;;;;9.07;5.10;;;;;;;;;;5026390;28;20482;-77
2022/06/23 03:37:03;;;;;;;8.63;5.28;;;;;;;;;;5021059;28;20060;-77
2022/06/23 03:42:45;;;;;;;8.73;4.88;;;;;;;;;;5027523;28;20543;-76
2022/06/23 03:45:21;;;;;;;7.57;5.60;;;;;;;;;;5020098;28;20029;-73
2022/06/23 03:48:16;;;;;;;7.53;5.90;;;;;;;;;;5023656;28;20021;-77
2022/06/23 03:51:20;;;;;;;7.43;5.20;;;;;;;;;;5022690;28;20095;-76
2022/06/23 03:53:49;;;;;;;8.35;5.57;;;;;;;;;;5005048;28;20042;-73
2022/06/23 03:56:18;;;;;;;8.43;5.18;;;;;;;;;;5022040;28;20030;-77
2022/06/23 03:58:51;;;;;;;8.52;5.53;;;;;;;;;;5026740;28;20045;-73
2022/06/23 04:01:31;;;;;;;10.27;5.22;;;;;;;;;;5024450;28;20040;-74
2022/06/23 04:04:14;;;;;;;8.43;5.18;;;;;;;;;;5024623;28;20017;-74
2022/06/23 04:06:47;;;;;;;6.70;5.20;;;;;;;;;;5020611;28;20168;-76
2022/06/23 04:09:27;;;;;;;8.57;5.60;;;;;;;;;;5026010;28;20029;-77
2022/06/23 04:12:14;;;;;;;8.07;5.20;;;;;;;;;;5021170;28;20029;-76
2022/06/23 04:14:53;;;;;;;8.77;5.60;;;;;;;;;;5025999;28;20056;-74
2022/06/23 04:17:41;;;;;;;11.60;5.28;;;;;;;;;;5025394;28;20029;-75
2022/06/23 04:20:27;;;;;;;9.10;5.22;;;;;;;;;;5025030;28;20025;-77
2022/06/23 04:23:18;;;;;;;8.27;5.32;;;;;;;;;;5022623;28;20167;-77
2022/06/23 04:25:56;;;;;;;9.10;5.18;;;;;;;;;;5038871;28;20132;-77
2022/06/23 04:28:31;;;;;;;7.72;5.03;;;;;;;;;;5026103;28;20482;-77
2022/06/23 04:30:59;;;;;;;8.32;5.28;;;;;;;;;;5022670;28;20036;-76
2022/06/23 04:33:27;;;;;;;6.95;5.05;;;;;;;;;;5026725;28;20029;-76
2022/06/23 04:35:58;;;;;;;10.68;5.75;;;;;;;;;;5027802;28;20449;-74
2022/06/23 04:38:43;;;;;;;11.35;5.70;;;;;;;;;;5024492;28;20501;-76
2022/06/23 04:41:17;;;;;;;10.13;5.28;;;;;;;;;;5030085;28;20028;-77
2022/06/23 04:43:48;;;;;;;8.73;5.43;;;;;;;;;;5020582;28;20034;-76
2022/06/23 04:46:15;;;;;;;9.02;5.28;;;;;;;;;;5020545;28;20021;-76
2022/06/23 04:48:46;;;;;;;7.60;5.20;;;;;;;;;;5025848;28;20025;-75
2022/06/23 04:51:38;;;;;;;8.27;5.78;;;;;;;;;;5022242;28;20477;-75
2022/06/23 04:54:09;;;;;;;9.35;5.45;;;;;;;;;;5022462;28;20040;-76
2022/06/23 04:56:42;;;;;;;10.30;5.70;;;;;;;;;;5019400;28;20036;-76
2022/06/23 04:59:26;;;;;;;;;;;;;;;;;;5023413;28;20397;-76
2022/06/23 05:01:54;;;;;;;7.20;4.85;;;;;;;;;;5024137;28;20003;-77
2022/06/23 05:04:25;;;;;;;7.53;5.18;;;;;;;;;;5025597;28;20445;-77
2022/06/23 05:06:55;;;;;;;9.00;5.30;;;;;;;;;;5024951;28;20026;-74
2022/06/23 05:09:26;;;;;;;9.00;6.00;;;;;;;;;;5021006;28;20434;-77
2022/06/23 05:11:56;;;;;;;8.65;5.43;;;;;;;;;;5026761;28;20032;-75
2022/06/23 05:14:45;;;;;;;10.30;5.50;;;;;;;;;;5024327;28;20026;-75
2022/06/23 05:17:17;;;;;;;9.88;6.07;;;;;;;;;;5026157;28;20044;-74
2022/06/23 05:19:43;;;;;;;8.70;5.43;;;;;;;;;;5032260;28;20025;-75
2022/06/23 05:22:36;;;;;;;7.30;5.65;;;;;;;;;;5024778;28;20497;-77
2022/06/23 05:25:45;;;;;;;8.98;6.13;;;;;;;;;;5029691;28;20024;-76
2022/06/23 05:28:23;;;;;;;9.30;5.90;;;;;;;;;;5017654;28;20026;-74
2022/06/23 05:30:59;;;;;;;10.52;5.60;;;;;;;;;;5026882;28;20072;-76
2022/06/23 05:33:30;;;;;;;7.13;5.03;;;;;;;;;;5031562;28;20474;-77
2022/06/23 05:36:03;;;;;;;9.05;5.95;;;;;;;;;;5029957;28;20037;-76
2022/06/23 05:38:42;;;;;;;7.53;5.82;;;;;;;;;;5026464;28;20470;-76
2022/06/23 05:41:28;;;;;;;9.23;5.75;;;;;;;;;;5029179;28;20026;-77
2022/06/23 05:43:57;;;;;;;9.57;5.93;;;;;;;;;;5025015;28;22382;-75
2022/06/23 05:46:25;;;;;;;9.23;6.03;;;;;;;;;;5029440;28;20450;-77
2022/06/23 05:48:58;;;;;;;9.68;5.88;;;;;;;;;;5032099;28;20021;-77
2022/06/23 05:51:35;;;;;;;8.30;5.57;;;;;;;;;;5030295;28;20033;-77
2022/06/23 05:54:13;;;;;;;7.65;5.80;;;;;;;;;;5026996;28;20402;-76
2022/06/23 05:57:01;;;;;;;7.93;5.50;;;;;;;;;;5028637;28;20106;-77
2022/06/23 05:59:53;;;;;;;9.02;6.28;;;;;;;;;;5029328;28;20052;-78
2022/06/23 06:02:31;;;;;;;8.38;5.38;;;;;;;;;;5028882;28;20508;-77
2022/06/23 06:04:58;;;;;;;8.50;4.63;;;;;;;;;;5028840;28;20095;-77
2022/06/23 06:07:33;;;;;;;8.82;4.80;;;;;;;;;;5024422;28;20083;-77
2022/06/23 06:09:59;;;;;;;6.72;4.90;;;;;;;;;;5025556;28;20026;-76
2022/06/23 06:12:31;;;;;;;7.05;4.82;;;;;;;;;;5030964;28;20029;-73
2022/06/23 06:15:04;;;;;;;7.63;4.90;;;;;;;;;;5024157;28;20377;-74
2022/06/23 06:17:33;;;;;;;9.30;4.70;;;;;;;;;;5029016;28;20104;-74
2022/06/23 06:20:05;;;;;;;7.00;4.32;;;;;;;;;;5022216;28;20373;-79
2022/06/23 06:22:48;;;;;;;10.88;5.07;;;;;;;;;;5026334;28;20018;-77
2022/06/23 06:25:25;;;;;;;8.15;4.88;;;;;;;;;;5028556;28;20100;-72
2022/06/23 06:27:53;;;;;;;7.35;4.80;;;;;;;;;;5032769;28;20044;-80
2022/06/23 06:30:25;;;;;;;8.45;5.00;;;;;;;;;;5030162;28;20779;-76
2022/06/23 06:32:50;;;;;;;7.13;4.43;;;;;;;;;;5029058;28;20025;-75
2022/06/23 06:35:25;;;;;;;7.40;4.85;;;;;;;;;;5033471;28;20123;-77
2022/06/23 06:37:56;;;;;;;7.72;4.50;;;;;;;;;;5033269;28;20115;-75
2022/06/23 06:40:21;;;;;;;7.45;4.40;;;;;;;;;;5033213;28;20040;-77
2022/06/23 06:42:54;;;;;;;6.32;4.60;;;;;;;;;;5033408;28;20033;-75
2022/06/23 06:45:24;;;;;;;8.55;5.25;;;;;;;;;;5032170;28;20103;-77
2022/06/23 06:47:50;;;;;;;6.22;4.75;;;;;;;;;;5033961;28;20025;-75
2022/06/23 06:50:18;;;;;;;8.23;4.55;;;;;;;;;;5033762;28;20363;-75
2022/06/23 06:52:44;;;;;;;6.25;4.30;;;;;;;;;;5030473;28;20053;-76
2022/06/23 06:55:22;;;;;;;6.57;4.30;;;;;;;;;;5030671;28;20083;-76
2022/06/23 06:57:57;;;;;;;6.47;4.05;;;;;;;;;;5024410;28;20083;-76
2022/06/23 07:00:34;;;;;;;7.07;4.60;;;;;;;;;;5027639;28;20029;-77
2022/06/23 07:03:03;;;;;;;6.72;4.10;;;;;;;;;;5029092;28;20028;-78
2022/06/23 07:05:44;;;;;;;7.10;4.13;;;;;;;;;;5031952;28;20049;-75
2022/06/23 07:08:17;;;;;;;7.57;4.53;;;;;;;;;;5031254;28;20091;-75
2022/06/23 07:10:57;;;;;;;6.32;4.20;;;;;;;;;;5028712;28;20687;-77
2022/06/23 07:13:33;;;;;;;6.93;4.10;;;;;;;;;;5030436;28;20021;-75
2022/06/23 07:16:51;;;;;;;6.65;4.43;;;;;;;;;;5031458;28;20029;-75
2022/06/23 07:19:30;;;;;;;6.20;4.03;;;;;;;;;;5019534;28;20045;-73
2022/06/23 07:22:06;;;;;;;5.95;3.97;;;;;;;;;;5027962;28;20112;-80
2022/06/23 07:24:49;;;;;;;6.40;4.00;;;;;;;;;;5030105;28;20045;-80
2022/06/23 07:27:20;;;;;;;7.05;4.18;;;;;;;;;;5026620;28;20497;-79
2022/06/23 07:30:04;;;;;;;6.28;4.18;;;;;;;;;;5032363;28;20022;-76
2022/06/23 07:32:36;;;;;;;8.35;4.13;;;;;;;;;;5025452;28;20108;-72
2022/06/23 07:35:26;;;;;;;5.40;4.00;;;;;;;;;;5030092;28;20399;-80
2022/06/23 07:38:14;;;;;;;6.82;4.30;;;;;;;;;;5027056;28;20124;-76
2022/06/23 07:40:47;;;;;;;6.65;4.30;;;;;;;;;;5027859;28;20048;-73
2022/06/23 07:43:22;;;;;;;5.25;4.10;;;;;;;;;;5027539;28;20025;-71
2022/06/23 07:46:06;;;;;;;8.25;5.10;;;;;;;;;;5030049;28;20096;-72
2022/06/23 07:48:34;;;;;;;6.07;4.03;;;;;;;;;;5029001;28;20087;-73
2022/06/23 07:51:02;;;;;;;8.32;4.00;;;;;;;;;;5031196;28;20063;-76
2022/06/23 07:53:31;;;;;;;7.55;4.65;;;;;;;;;;5030334;28;20037;-76
2022/06/23 07:55:58;;;;;;;8.10;4.93;;;;;;;;;;5028482;28;20037;-80
2022/06/23 07:58:30;;;;;;;7.05;4.35;;;;;;;;;;5028681;28;20025;-73
2022/06/23 08:01:08;;;;;;;6.50;4.07;;;;;;;;;;5026253;28;20095;-76
2022/06/23 08:03:44;;;;;;;7.93;4.65;;;;;;;;;;5026752;28;20095;-72
2022/06/23 08:06:13;;;;;;;10.23;5.28;;;;;;;;;;5026736;28;20029;-76
2022/06/23 08:08:41;;;;;;;8.88;4.85;;;;;;;;;;5031706;28;20029;-75
2022/06/23 08:14:04;;;;;;;9.48;4.90;;;;;;;;;;5030777;28;20044;-76
2022/06/23 08:16:49;;;;;;;9.50;4.82;;;;;;;;;;5030002;28;20433;-76
2022/06/23 08:19:39;;;;;;;6.18;4.43;;;;;;;;;;5030870;28;20492;-75
2022/06/23 08:22:20;;;;;;;6.68;4.28;;;;;;;;;;5048682;28;20039;-76
2022/06/23 08:24:48;;;;;;;7.13;5.03;;;;;;;;;;5027013;28;20036;-76
2022/06/23 08:27:19;;;;;;;6.20;4.00;;;;;;;;;;5028334;28;20025;-76
2022/06/23 08:29:56;;;;;;;7.75;4.68;;;;;;;;;;5023343;28;20040;-75
2022/06/23 08:32:23;;;;;;;8.32;4.25;;;;;;;;;;5026972;28;20124;-76
2022/06/23 08:35:00;;;;;;;6.50;4.68;;;;;;;;;;5024483;28;20713;-76
2022/06/23 08:37:26;;;;;;;9.75;5.07;;;;;;;;;;5033361;28;20028;-75
2022/06/23 08:40:05;;;;;;;7.22;5.38;;;;;;;;;;5031244;28;20533;-76
2022/06/23 08:42:44;;;;;;;7.03;4.93;;;;;;;;;;5030523;28;20067;-76
2022/06/23 08:45:31;;;;;;;7.60;5.07;;;;;;;;;;5031128;28;20036;-76
2022/06/23 08:48:28;;;;;;;9.73;4.85;;;;;;;;;;5029020;28;20017;-76
2022/06/23 08:51:17;;;;;;;16.40;6.90;;;;;;;;;;5030548;28;20033;-77
2022/06/23 08:54:16;;;;;;;11.60;5.43;;;;;;;;;;5029720;28;20119;-77
2022/06/23 08:57:03;;;;;;;8.70;5.25;;;;;;;;;;5030693;28;20037;-76
2022/06/23 08:59:37;;;;;;;7.97;5.38;;;;;;;;;;5031878;28;20483;-75
2022/06/23 09:02:32;;;;;;;9.13;5.57;;;;;;;;;;5030342;28;20029;-77
2022/06/23 09:05:16;;;;;;;8.18;5.60;;;;;;;;;;5028823;28;20021;-76
2022/06/23 09:07:49;;;;;;;8.43;5.35;;;;;;;;;;5029733;28;20537;-74
2022/06/23 09:10:36;;;;;;;9.45;5.43;;;;;;;;;;5030409;28;20017;-76
2022/06/23 09:13:33;;;;;;;7.45;5.20;;;;;;;;;;5030507;28;20065;-76
2022/06/23 09:16:08;;;;;;;13.80;6.30;;;;;;;;;;5028995;28;20426;-76
2022/06/23 09:19:10;;;;;;;9.77;5.43;;;;;;;;;;5031090;28;20573;-77
2022/06/23 09:21:50;;;;;;;9.32;5.32;;;;;;;;;;5030524;28;20033;-75
2022/06/23 09:24:19;;;;;;;7.07;4.97;;;;;;;;;;5028890;28;20021;-75
2022/06/23 09:27:02;;;;;;;8.15;5.00;;;;;;;;;;5029767;28;20390;-76
2022/06/23 09:29:56;;;;;;;7.57;5.13;;;;;;;;;;5030568;28;20410;-77
2022/06/23 09:32:44;;;;;;;10.23;6.40;;;;;;;;;;5029684;28;20083;-76
2022/06/23 09:35:47;;;;;;;7.05;4.90;;;;;;;;;;5028684;28;20560;-77
2022/06/23 09:38:31;;;;;;;6.93;4.03;;;;;;;;;;5029754;28;20588;-75
2022/06/23 09:41:23;;;;;;;9.88;4.30;;;;;;;;;;5030538;28;20029;-76
2022/06/23 09:44:01;;;;;;;7.70;4.10;;;;;;;;;;5030637;28;20026;-76
2022/06/23 09:46:26;;;;;;;9.30;4.97;;;;;;;;;;5029979;28;20052;-77
2022/06/23 09:49:07;;;;;;;6.38;4.07;;;;;;;;;;5030491;28;20057;-76
2022/06/23 09:51:41;;;;;;;7.07;4.30;;;;;;;;;;5027404;28;20060;-75
2022/06/23 09:54:45;;;;;;;7.25;4.35;;;;;;;;;;5026976;28;20041;-75
2022/06/23 09:57:31;;;;;;;9.95;4.50;;;;;;;;;;5025222;28;20037;-75
2022/06/23 10:00:31;;;;;;;6.13;4.53;;;;;;;;;;5027112;28;20068;-75
2022/06/23 10:03:16;;;;;;;10.63;4.68;;;;;;;;;;5027676;28;20128;-75
2022/06/23 10:05:59;;;;;;;8.10;5.10;;;;;;;;;;5032204;28;20026;-77
2022/06/23 10:08:50;;;;;;;6.93;3.88;;;;;;;;;;5030529;28;20069;-77
2022/06/23 10:11:57;;;;;;;6.60;3.67;;;;;;;;;;5034847;28;20079;-75
2022/06/23 10:14:34;;;;;;;7.10;3.40;;;;;;;;;;5033625;28;20021;-75
2022/06/23 10:17:08;;;;;;;6.55;3.45;;;;;;;;;;5030578;28;20029;-75
2022/06/23 10:20:01;;;;;;;7.35;3.83;;;;;;;;;;5030046;28;20040;-77
2022/06/23 10:23:03;;;;;;;5.80;3.85;;;;;;;;;;5030999;28;20029;-76
2022/06/23 10:26:12;;;;;;;10.15;4.78;;;;;;;;;;5034250;28;20112;-75
2022/06/23 10:29:22;;;;;;;5.80;3.50;;;;;;;;;;5030541;28;20068;-76
2022/06/23 10:32:02;;;;;;;7.28;3.63;;;;;;;;;;5032028;28;20057;-76
2022/06/23 10:34:46;;;;;;;8.48;3.97;;;;;;;;;;5033077;28;20079;-75
2022/06/23 10:37:43;;;;;;;8.95;4.13;;;;;;;;;;5031764;28;20481;-75
2022/06/23 10:40:14;;;;;;;7.20;3.78;;;;;;;;;;5031468;28;20056;-75
2022/06/23 10:42:58;;;;;;;6.65;3.75;;;;;;;;;;5031931;28;20493;-76
2022/06/23 10:46:00;;;;;;;6.22;3.40;;;;;;;;;;5032480;28;20029;-75
2022/06/23 10:49:02;;;;;;;9.13;3.92;;;;;;;;;;4995993;28;20048;-76
2022/06/23 10:51:33;;;;;;;6.45;3.30;;;;;;;;;;5031846;28;20405;-77
2022/06/23 10:54:31;;;;;;;6.22;3.40;;;;;;;;;;5030657;28;20064;-75
2022/06/23 10:57:17;;;;;;;5.70;3.08;;;;;;;;;;5032180;28;20120;-75
2022/06/23 10:59:57;;;;;;;7.35;3.13;;;;;;;;;;5025883;28;20025;-74
2022/06/23 11:02:34;;;;;;;6.50;3.10;;;;;;;;;;5031202;28;20474;-75
2022/06/23 11:05:11;;;;;;;7.63;3.30;;;;;;;;;;5030164;28;20470;-75
2022/06/23 11:08:11;;;;;;;8.25;3.55;;;;;;;;;;5032695;28;20048;-75
2022/06/23 11:11:01;;;;;;;7.63;3.55;;;;;;;;;;5030703;28;20029;-75
2022/06/23 11:13:29;;;;;;;6.07;3.20;;;;;;;;;;5031537;28;20057;-75
2022/06/23 11:16:00;;;;;;;6.13;2.53;;;;;;;;;;5033183;28;20029;-77
2022/06/23 11:18:37;;;;;;;8.20;2.60;;;;;;;;;;5032209;28;20094;-75
2022/06/23 11:21:21;;;;;;;7.95;2.42;;;;;;;;;;5032123;28;20021;-75
2022/06/23 11:23:59;;;;;;;9.25;2.50;;;;;;;;;;5029663;28;20071;-75
2022/06/23 11:26:35;;;;;;;7.50;2.28;;;;;;;;;;5032894;28;20025;-76
2022/06/23 11:29:42;;;;;;;6.05;2.30;;;;;;;;;;5029832;28;20060;-74
2022/06/23 11:32:22;;;;;;;7.22;2.20;;;;;;;;;;5026566;28;20462;-75
2022/06/23 11:35:18;;;;;;;5.90;2.15;;;;;;;;;;5031100;28;20486;-74
2022/06/23 11:38:12;;;;;;;6.38;2.28;;;;;;;;;;5009689;28;20197;-75
2022/06/23 11:40:50;;;;;;;6.10;2.40;;;;;;;;;;5029621;28;20025;-75
2022/06/23 11:43:34;;;;;;;9.38;2.40;;;;;;;;;;5027269;28;20549;-75
2022/06/23 11:46:11;;;;;;;5.50;2.10;;;;;;;;;;5033014;28;20021;-76
2022/06/23 11:48:56;;;;;;;9.20;2.50;;;;;;;;;;5030883;28;20032;-75
2022/06/23 11:51:55;;;;;;;8.70;3.10;;;;;;;;;;5029899;28;20134;-76
2022/06/23 11:54:58;;;;;;;7.60;2.30;;;;;;;;;;5029843;28;20102;-75
2022/06/23 11:57:32;;;;;;;9.00;3.17;;;;;;;;;;5020831;28;20041;-75
2022/06/23 12:00:07;;;;;;;6.72;2.58;;;;;;;;;;5031751;28;20064;-76
2022/06/23 12:02:41;;;;;;;7.32;2.63;;;;;;;;;;5030185;28;20421;-77
2022/06/23 12:05:27;;;;;;;10.50;3.40;;;;;;;;;;5026873;28;20052;-75
2022/06/23 12:08:18;;;;;;;5.47;3.05;;;;;;;;;;5029342;28;20481;-76
2022/06/23 12:10:44;;;;;;;5.90;2.75;;;;;;;;;;5027370;28;20039;-76
2022/06/23 12:13:09;;;;;;;5.78;2.80;;;;;;;;;;5032313;28;20471;-75
2022/06/23 12:15:49;;;;;;;7.22;3.22;;;;;;;;;;5031194;28;20033;-74
2022/06/23 12:18:14;;;;;;;8.43;2.90;;;;;;;;;;5020463;28;20108;-76
2022/06/23 12:20:43;;;;;;;6.40;3.00;;;;;;;;;;5029834;28;20075;-74
2022/06/23 12:23:32;;;;;;;5.85;3.10;;;;;;;;;;5030059;28;20037;-76
2022/06/23 12:26:07;;;;;;;4.50;2.78;;;;;;;;;;5019289;28;20566;-76
2022/06/23 12:28:44;;;;;;;6.13;3.10;;;;;;;;;;5028052;28;20033;-75
2022/06/23 12:31:38;;;;;;;8.23;3.45;;;;;;;;;;5027984;28;20112;-76
2022/06/23 12:34:03;;;;;;;5.18;2.65;;;;;;;;;;5025770;28;20490;-75
2022/06/23 12:36:29;;;;;;;7.85;3.15;;;;;;;;;;5028427;28;20140;-75
2022/06/23 12:39:04;;;;;;;7.03;2.63;;;;;;;;;;5025605;28;20057;-75
2022/06/23 12:41:38;;;;;;;5.47;2.85;;;;;;;;;;5027744;28;20047;-74
2022/06/23 12:44:27;;;;;;;5.80;2.60;;;;;;;;;;5030165;28;20091;-74
2022/06/23 12:47:21;;;;;;;4.60;2.70;;;;;;;;;;5028609;28;20032;-76
2022/06/23 12:50:13;;;;;;;7.78;2.67;;;;;;;;;;5025061;28;20025;-75
2022/06/23 12:53:08;;;;;;;6.13;2.50;;;;;;;;;;5025210;28;20037;-74
2022/06/23 12:55:55;;;;;;;7.32;2.72;;;;;;;;;;5026714;28;20050;-76
2022/06/23 12:58:31;;;;;;;8.48;2.95;;;;;;;;;;5028593;28;20049;-75
2022/06/23 13:01:05;;;;;;;6.20;2.72;;;;;;;;;;5025075;28;20029;-75
2022/06/23 13:03:50;;;;;;;4.97;2.65;;;;;;;;;;5029553;28;20405;-75
2022/06/23 13:06:36;;;;;;;7.07;2.78;;;;;;;;;;5024803;28;20029;-76
2022/06/23 13:09:07;;;;;;;4.75;2.55;;;;;;;;;;5028510;28;20474;-75
2022/06/23 13:11:42;;;;;;;5.68;2.30;;;;;;;;;;5028226;28;20030;-76
2022/06/23 13:14:23;;;;;;;6.57;2.53;;;;;;;;;;5031241;28;20120;-76
2022/06/23 13:17:21;;;;;;;6.88;2.97;;;;;;;;;;5029168;28;20505;-76
2022/06/23 13:19:53;;;;;;;9.02;2.67;;;;;;;;;;5026656;28;20359;-75
2022/06/23 13:22:18;;;;;;;7.32;2.47;;;;;;;;;;5027437;28;20052;-74
2022/06/23 13:24:44;;;;;;;4.85;2.25;;;;;;;;;;5030946;28;20041;-76
2022/06/23 13:27:29;;;;;;;4.97;2.42;;;;;;;;;;5031203;28;20036;-76
2022/06/23 13:30:07;;;;;;;5.97;2.45;;;;;;;;;;5030813;28;20031;-76
2022/06/23 13:32:45;;;;;;;7.57;2.75;;;;;;;;;;5026419;28;20029;-75
2022/06/23 13:35:30;;;;;;;4.63;2.50;;;;;;;;;;5031698;28;20045;-75
2022/06/23 13:38:22;;;;;;;5.88;2.65;;;;;;;;;;5030610;28;20061;-76
2022/06/23 13:41:08;;;;;;;6.75;2.83;;;;;;;;;;5025277;28;20056;-76
2022/06/23 13:43:47;;;;;;;6.18;2.83;;;;;;;;;;5029334;28;20444;-74
2022/06/23 13:46:17;;;;;;;3.78;2.50;;;;;;;;;;5026266;28;20026;-75
2022/06/23 13:48:51;;;;;;;6.63;2.80;;;;;;;;;;5031291;28;20087;-76
2022/06/23 13:51:34;;;;;;;7.85;2.78;;;;;;;;;;5030095;28;20025;-75
2022/06/23 13:54:05;;;;;;;5.05;2.40;;;;;;;;;;5032420;28;20033;-75
2022/06/23 13:57:07;;;;;;;4.55;2.45;;;;;;;;;;5030242;28;20116;-76
2022/06/23 14:00:07;;;;;;;6.90;2.30;;;;;;;;;;5033090;28;20438;-75
2022/06/23 14:02:53;;;;;;;6.20;2.58;;;;;;;;;;5027565;28;20481;-75
2022/06/23 14:05:39;;;;;;;4.97;2.65;;;;;;;;;;5022773;28;20033;-75
2022/06/23 14:08:07;;;;;;;5.93;2.72;;;;;;;;;;5019952;28;20033;-75
2022/06/23 14:10:58;;;;;;;7.70;3.28;;;;;;;;;;5022764;28;20493;-75
2022/06/23 14:13:30;;;;;;;6.10;2.70;;;;;;;;;;5003854;28;20077;-76
2022/06/23 14:16:08;;;;;;;5.47;2.83;;;;;;;;;;5021137;28;20033;-75
2022/06/23 14:18:44;;;;;;;7.68;2.90;;;;;;;;;;5038890;28;20044;-76
2022/06/23 14:21:34;;;;;;;7.68;2.63;;;;;;;;;;5022110;28;20041;-76
2022/06/23 14:24:15;;;;;;;5.95;2.20;;;;;;;;;;5022970;28;20055;-75
2022/06/23 14:26:40;;;;;;;8.93;2.47;;;;;;;;;;5022939;28;20018;-76
2022/06/23 14:29:29;;;;;;;7.47;2.47;;;;;;;;;;5022451;28;20497;-76
2022/06/23 14:32:13;;;;;;;5.07;2.40;;;;;;;;;;5020525;28;20086;-75
2022/06/23 14:34:46;;;;;;;11.45;2.80;;;;;;;;;;5017314;28;20537;-75
2022/06/23 14:37:29;;;;;;;;;;;;;;;;;;5023078;28;20032;-76
2022/06/23 14:40:01;;;;;;;5.53;2.15;;;;;;;;;;5022282;28;20433;-76
2022/06/23 14:42:43;;;;;;;5.57;2.75;;;;;;;;;;5018649;28;20033;-76
2022/06/23 14:45:24;;;;;;;6.63;2.22;;;;;;;;;;5021340;28;20140;-75
2022/06/23 14:47:50;;;;;;;5.72;2.40;;;;;;;;;;5022506;28;20375;-74
2022/06/23 14:50:28;;;;;;;5.15;2.70;;;;;;;;;;5012703;28;20034;-75
2022/06/23 14:53:07;;;;;;;5.55;2.40;;;;;;;;;;5022602;28;20024;-74
2022/06/23 14:55:51;;;;;;;4.93;2.58;;;;;;;;;;5020763;28;20030;-75
2022/06/23 14:58:22;;;;;;;6.22;2.42;;;;;;;;;;5018785;28;20029;-76
2022/06/23 15:00:55;;;;;;;5.28;2.42;;;;;;;;;;5020681;28;20485;-75
2022/06/23 15:04:02;;;;;;;5.25;2.55;;;;;;;;;;5023407;28;20021;-75
2022/06/23 15:06:43;;;;;;;9.70;2.78;;;;;;;;;;5019334;28;20094;-75
2022/06/23 15:09:14;;;;;;;6.75;2.22;;;;;;;;;;5021726;28;20572;-74
2022/06/23 15:12:01;;;;;;;4.88;2.35;;;;;;;;;;5021947;28;20025;-75
2022/06/23 15:15:04;;;;;;;5.38;2.15;;;;;;;;;;5021793;28;20029;-75
2022/06/23 15:17:52;;;;;;;5.03;2.45;;;;;;;;;;5020818;28;20033;-75
2022/06/23 15:20:22;;;;;;;4.22;2.17;;;;;;;;;;5022346;28;20800;-74
2022/06/23 15:23:11;;;;;;;6.10;2.20;;;;;;;;;;5022916;28;20095;-75
2022/06/23 15:25:39;;;;;;;6.03;2.30;;;;;;;;;;5018529;28;20064;-76
2022/06/23 15:28:10;;;;;;;5.30;2.15;;;;;;;;;;5019896;28;20099;-75
2022/06/23 15:30:50;;;;;;;4.82;2.30;;;;;;;;;;5022396;28;20850;-76
2022/06/23 15:34:02;;;;;;;6.18;2.50;;;;;;;;;;5022481;28;20025;-75
2022/06/23 15:36:46;;;;;;;5.47;2.00;;;;;;;;;;4960726;28;20152;-75
2022/06/23 15:39:39;;;;;;;4.20;2.08;;;;;;;;;;4980132;28;20034;-75
2022/06/23 15:42:04;;;;;;;;;;;;;;;;;;5017163;28;20041;-76
2022/06/23 15:44:33;;;;;;;4.13;2.20;;;;;;;;;;5023088;28;19921;-75
2022/06/23 15:47:07;;;;;;;5.35;2.20;;;;;;;;;;5017095;28;20025;-76
2022/06/23 15:49:50;;;;;;;3.55;2.10;;;;;;;;;;5023222;28;20056;-74
2022/06/23 15:52:37;;;;;;;3.40;2.13;;;;;;;;;;5018243;28;20029;-76
2022/06/23 15:55:09;;;;;;;3.70;1.90;;;;;;;;;;5018964;28;20702;-75
2022/06/23 15:57:48;;;;;;;5.30;2.75;;;;;;;;;;5022706;28;20041;-76
2022/06/23 16:00:22;;;;;;;3.92;2.00;;;;;;;;;;5016989;28;20095;-76
2022/06/23 16:02:57;;;;;;;6.35;2.53;;;;;;;;;;5017666;28;20478;-76
2022/06/23 16:05:26;;;;;;;5.22;2.03;;;;;;;;;;5020066;28;20021;-75